sensor_id;sensor_type;location;lat;lon;timestamp;P1;durP1;ratioP1;P2;durP2;ratioP2
77769;SDS011;66961;51.482;9.160;2023-11-19T00:00:32;1.00;;;0.80;;
77769;SDS011;66961;51.482;9.160;2023-11-19T00:02:58;0.83;;;0.57;;
77769;SDS011;66961;51.482;9.160;2023-11-19T00:05:23;0.83;;;0.47;;
77769;SDS011;66961;51.482;9.160;2023-11-19T00:07:48;0.83;;;0.80;;
77769;SDS011;66961;51.482;9.160;2023-11-19T00:10:14;1.20;;;0.70;;
77769;SDS011;66961;51.482;9.160;2023-11-19T00:12:43;1.67;;;0.95;;
77769;SDS011;66961;51.482;9.160;2023-11-19T00:15:10;1.85;;;0.70;;
77769;SDS011;66961;51.482;9.160;2023-11-19T00:17:35;0.60;;;0.50;;
77769;SDS011;66961;51.482;9.160;2023-11-19T00:20:01;4.43;;;0.80;;
77769;SDS011;66961;51.482;9.160;2023-11-19T00:22:26;0.93;;;0.57;;
77769;SDS011;66961;51.482;9.160;2023-11-19T00:24:51;1.13;;;0.80;;
77769;SDS011;66961;51.482;9.160;2023-11-19T00:27:16;1.17;;;0.90;;
77769;SDS011;66961;51.482;9.160;2023-11-19T00:29:42;1.13;;;0.80;;
77769;SDS011;66961;51.482;9.160;2023-11-19T00:32:07;0.90;;;0.60;;
77769;SDS011;66961;51.482;9.160;2023-11-19T00:34:32;1.20;;;0.80;;
77769;SDS011;66961;51.482;9.160;2023-11-19T00:36:58;0.82;;;0.50;;
77769;SDS011;66961;51.482;9.160;2023-11-19T00:39:23;0.80;;;0.60;;
77769;SDS011;66961;51.482;9.160;2023-11-19T00:41:48;2.13;;;0.70;;
77769;SDS011;66961;51.482;9.160;2023-11-19T00:44:13;1.13;;;0.77;;
77769;SDS011;66961;51.482;9.160;2023-11-19T00:46:39;1.08;;;0.80;;
77769;SDS011;66961;51.482;9.160;2023-11-19T00:49:04;1.10;;;0.70;;
77769;SDS011;66961;51.482;9.160;2023-11-19T00:51:29;1.00;;;0.70;;
77769;SDS011;66961;51.482;9.160;2023-11-19T00:53:55;1.00;;;0.60;;
77769;SDS011;66961;51.482;9.160;2023-11-19T00:56:20;1.75;;;0.73;;
77769;SDS011;66961;51.482;9.160;2023-11-19T00:58:45;1.10;;;0.60;;
77769;SDS011;66961;51.482;9.160;2023-11-19T01:01:14;1.17;;;0.63;;
77769;SDS011;66961;51.482;9.160;2023-11-19T01:03:39;0.90;;;0.50;;
77769;SDS011;66961;51.482;9.160;2023-11-19T01:06:04;0.67;;;0.40;;
77769;SDS011;66961;51.482;9.160;2023-11-19T01:08:30;1.85;;;0.75;;
77769;SDS011;66961;51.482;9.160;2023-11-19T01:10:55;0.98;;;0.55;;
77769;SDS011;66961;51.482;9.160;2023-11-19T01:13:21;0.80;;;0.60;;
77769;SDS011;66961;51.482;9.160;2023-11-19T01:15:46;1.07;;;0.70;;
77769;SDS011;66961;51.482;9.160;2023-11-19T01:18:11;1.95;;;0.82;;
77769;SDS011;66961;51.482;9.160;2023-11-19T01:20:36;1.67;;;0.60;;
77769;SDS011;66961;51.482;9.160;2023-11-19T01:23:02;1.03;;;0.63;;
77769;SDS011;66961;51.482;9.160;2023-11-19T01:25:27;3.40;;;0.93;;
77769;SDS011;66961;51.482;9.160;2023-11-19T01:27:52;2.57;;;0.90;;
77769;SDS011;66961;51.482;9.160;2023-11-19T01:30:17;1.50;;;0.50;;
77769;SDS011;66961;51.482;9.160;2023-11-19T01:32:43;0.93;;;0.70;;
77769;SDS011;66961;51.482;9.160;2023-11-19T01:35:08;2.93;;;0.90;;
77769;SDS011;66961;51.482;9.160;2023-11-19T01:37:33;1.20;;;0.83;;
77769;SDS011;66961;51.482;9.160;2023-11-19T01:39:59;1.25;;;0.88;;
77769;SDS011;66961;51.482;9.160;2023-11-19T01:42:24;1.20;;;0.80;;
77769;SDS011;66961;51.482;9.160;2023-11-19T01:44:59;1.40;;;0.90;;
77769;SDS011;66961;51.482;9.160;2023-11-19T01:47:25;1.45;;;0.80;;
77769;SDS011;66961;51.482;9.160;2023-11-19T01:49:51;2.45;;;0.93;;
77769;SDS011;66961;51.482;9.160;2023-11-19T01:52:17;1.08;;;0.70;;
77769;SDS011;66961;51.482;9.160;2023-11-19T01:54:44;2.25;;;0.80;;
77769;SDS011;66961;51.482;9.160;2023-11-19T01:57:09;0.90;;;0.70;;
77769;SDS011;66961;51.482;9.160;2023-11-19T01:59:35;1.95;;;0.80;;
77769;SDS011;66961;51.482;9.160;2023-11-19T02:02:00;1.20;;;0.90;;
77769;SDS011;66961;51.482;9.160;2023-11-19T02:04:26;1.25;;;0.73;;
77769;SDS011;66961;51.482;9.160;2023-11-19T02:06:52;1.83;;;0.93;;
77769;SDS011;66961;51.482;9.160;2023-11-19T02:09:21;1.92;;;0.77;;
77769;SDS011;66961;51.482;9.160;2023-11-19T02:11:46;1.50;;;1.10;;
77769;SDS011;66961;51.482;9.160;2023-11-19T02:14:12;1.08;;;0.80;;
77769;SDS011;66961;51.482;9.160;2023-11-19T02:16:37;2.10;;;0.90;;
77769;SDS011;66961;51.482;9.160;2023-11-19T02:19:02;1.10;;;0.90;;
77769;SDS011;66961;51.482;9.160;2023-11-19T02:21:27;1.20;;;0.80;;
77769;SDS011;66961;51.482;9.160;2023-11-19T02:23:53;1.87;;;0.83;;
77769;SDS011;66961;51.482;9.160;2023-11-19T02:26:29;1.33;;;0.90;;
77769;SDS011;66961;51.482;9.160;2023-11-19T02:29:00;1.48;;;1.00;;
77769;SDS011;66961;51.482;9.160;2023-11-19T02:31:26;1.50;;;1.00;;
77769;SDS011;66961;51.482;9.160;2023-11-19T02:33:51;1.20;;;0.80;;
77769;SDS011;66961;51.482;9.160;2023-11-19T02:36:16;1.30;;;0.90;;
77769;SDS011;66961;51.482;9.160;2023-11-19T02:38:42;1.33;;;0.80;;
77769;SDS011;66961;51.482;9.160;2023-11-19T02:41:07;1.20;;;0.83;;
77769;SDS011;66961;51.482;9.160;2023-11-19T02:43:33;1.20;;;0.80;;
77769;SDS011;66961;51.482;9.160;2023-11-19T02:46:00;2.25;;;0.98;;
77769;SDS011;66961;51.482;9.160;2023-11-19T02:48:29;1.50;;;0.90;;
77769;SDS011;66961;51.482;9.160;2023-11-19T02:50:54;3.43;;;1.30;;
77769;SDS011;66961;51.482;9.160;2023-11-19T02:53:19;2.00;;;1.43;;
77769;SDS011;66961;51.482;9.160;2023-11-19T02:55:44;1.40;;;1.00;;
77769;SDS011;66961;51.482;9.160;2023-11-19T02:58:10;1.63;;;1.10;;
77769;SDS011;66961;51.482;9.160;2023-11-19T03:00:35;1.30;;;0.90;;
77769;SDS011;66961;51.482;9.160;2023-11-19T03:03:00;1.63;;;1.17;;
77769;SDS011;66961;51.482;9.160;2023-11-19T03:05:26;2.33;;;1.00;;
77769;SDS011;66961;51.482;9.160;2023-11-19T03:07:52;1.80;;;1.10;;
77769;SDS011;66961;51.482;9.160;2023-11-19T03:10:17;1.80;;;1.05;;
77769;SDS011;66961;51.482;9.160;2023-11-19T03:12:43;1.50;;;1.00;;
77769;SDS011;66961;51.482;9.160;2023-11-19T03:15:09;1.63;;;1.05;;
77769;SDS011;66961;51.482;9.160;2023-11-19T03:17:44;1.48;;;1.08;;
77769;SDS011;66961;51.482;9.160;2023-11-19T03:20:10;1.73;;;1.42;;
77769;SDS011;66961;51.482;9.160;2023-11-19T03:22:36;2.25;;;1.33;;
77769;SDS011;66961;51.482;9.160;2023-11-19T03:25:02;1.48;;;1.02;;
77769;SDS011;66961;51.482;9.160;2023-11-19T03:27:27;2.97;;;1.30;;
77769;SDS011;66961;51.482;9.160;2023-11-19T03:29:53;2.53;;;1.60;;
77769;SDS011;66961;51.482;9.160;2023-11-19T03:32:18;1.63;;;0.90;;
77769;SDS011;66961;51.482;9.160;2023-11-19T03:34:43;2.03;;;1.00;;
77769;SDS011;66961;51.482;9.160;2023-11-19T03:37:08;1.40;;;1.00;;
77769;SDS011;66961;51.482;9.160;2023-11-19T03:39:34;1.20;;;0.90;;
77769;SDS011;66961;51.482;9.160;2023-11-19T03:41:59;2.15;;;1.15;;
77769;SDS011;66961;51.482;9.160;2023-11-19T03:44:25;1.20;;;0.80;;
77769;SDS011;66961;51.482;9.160;2023-11-19T03:46:52;1.95;;;1.00;;
77769;SDS011;66961;51.482;9.160;2023-11-19T03:49:17;1.88;;;1.10;;
77769;SDS011;66961;51.482;9.160;2023-11-19T03:51:42;1.42;;;0.93;;
77769;SDS011;66961;51.482;9.160;2023-11-19T03:54:08;4.07;;;0.90;;
77769;SDS011;66961;51.482;9.160;2023-11-19T03:56:33;2.20;;;1.50;;
77769;SDS011;66961;51.482;9.160;2023-11-19T03:58:58;1.60;;;1.00;;
77769;SDS011;66961;51.482;9.160;2023-11-19T04:01:23;1.40;;;1.07;;
77769;SDS011;66961;51.482;9.160;2023-11-19T04:03:49;1.17;;;0.80;;
77769;SDS011;66961;51.482;9.160;2023-11-19T04:06:14;1.90;;;1.40;;
77769;SDS011;66961;51.482;9.160;2023-11-19T04:08:39;1.00;;;0.70;;
77769;SDS011;66961;51.482;9.160;2023-11-19T04:11:04;1.40;;;0.80;;
77769;SDS011;66961;51.482;9.160;2023-11-19T04:13:30;1.30;;;1.00;;
77769;SDS011;66961;51.482;9.160;2023-11-19T04:15:55;1.20;;;0.70;;
77769;SDS011;66961;51.482;9.160;2023-11-19T04:18:20;1.30;;;0.80;;
77769;SDS011;66961;51.482;9.160;2023-11-19T04:20:45;1.17;;;0.67;;
77769;SDS011;66961;51.482;9.160;2023-11-19T04:23:11;2.77;;;1.07;;
77769;SDS011;66961;51.482;9.160;2023-11-19T04:25:36;1.97;;;0.90;;
77769;SDS011;66961;51.482;9.160;2023-11-19T04:28:02;1.50;;;1.00;;
77769;SDS011;66961;51.482;9.160;2023-11-19T04:30:27;2.00;;;1.33;;
77769;SDS011;66961;51.482;9.160;2023-11-19T04:32:53;1.50;;;1.00;;
77769;SDS011;66961;51.482;9.160;2023-11-19T04:35:18;2.30;;;0.90;;
77769;SDS011;66961;51.482;9.160;2023-11-19T04:37:43;1.67;;;1.03;;
77769;SDS011;66961;51.482;9.160;2023-11-19T04:40:08;2.00;;;1.00;;
77769;SDS011;66961;51.482;9.160;2023-11-19T04:42:34;1.52;;;0.95;;
77769;SDS011;66961;51.482;9.160;2023-11-19T04:44:59;1.77;;;1.10;;
77769;SDS011;66961;51.482;9.160;2023-11-19T04:47:25;1.33;;;0.83;;
77769;SDS011;66961;51.482;9.160;2023-11-19T04:49:50;1.87;;;0.80;;
77769;SDS011;66961;51.482;9.160;2023-11-19T04:52:15;1.37;;;0.80;;
77769;SDS011;66961;51.482;9.160;2023-11-19T04:54:41;2.03;;;1.00;;
77769;SDS011;66961;51.482;9.160;2023-11-19T04:57:06;1.23;;;1.13;;
77769;SDS011;66961;51.482;9.160;2023-11-19T04:59:33;1.50;;;0.90;;
77769;SDS011;66961;51.482;9.160;2023-11-19T05:01:59;2.30;;;0.75;;
77769;SDS011;66961;51.482;9.160;2023-11-19T05:04:24;1.30;;;0.70;;
77769;SDS011;66961;51.482;9.160;2023-11-19T05:06:49;1.73;;;0.95;;
77769;SDS011;66961;51.482;9.160;2023-11-19T05:09:15;1.63;;;0.90;;
77769;SDS011;66961;51.482;9.160;2023-11-19T05:11:40;1.50;;;0.90;;
77769;SDS011;66961;51.482;9.160;2023-11-19T05:14:05;1.80;;;0.77;;
77769;SDS011;66961;51.482;9.160;2023-11-19T05:16:31;3.17;;;1.42;;
77769;SDS011;66961;51.482;9.160;2023-11-19T05:18:56;2.17;;;0.95;;
77769;SDS011;66961;51.482;9.160;2023-11-19T05:21:22;1.37;;;1.10;;
77769;SDS011;66961;51.482;9.160;2023-11-19T05:23:47;2.00;;;1.43;;
77769;SDS011;66961;51.482;9.160;2023-11-19T05:26:23;2.80;;;1.40;;
77769;SDS011;66961;51.482;9.160;2023-11-19T05:28:49;2.97;;;1.30;;
77769;SDS011;66961;51.482;9.160;2023-11-19T05:31:15;3.00;;;1.75;;
77769;SDS011;66961;51.482;9.160;2023-11-19T05:33:42;3.17;;;1.60;;
77769;SDS011;66961;51.482;9.160;2023-11-19T05:36:07;2.55;;;1.80;;
77769;SDS011;66961;51.482;9.160;2023-11-19T05:38:32;2.22;;;1.23;;
77769;SDS011;66961;51.482;9.160;2023-11-19T05:40:58;3.60;;;1.40;;
77769;SDS011;66961;51.482;9.160;2023-11-19T05:43:23;2.70;;;1.43;;
77769;SDS011;66961;51.482;9.160;2023-11-19T05:45:48;2.30;;;1.57;;
77769;SDS011;66961;51.482;9.160;2023-11-19T05:48:13;2.90;;;1.33;;
77769;SDS011;66961;51.482;9.160;2023-11-19T05:50:39;4.90;;;1.40;;
77769;SDS011;66961;51.482;9.160;2023-11-19T05:53:04;2.67;;;1.45;;
77769;SDS011;66961;51.482;9.160;2023-11-19T05:55:30;2.42;;;1.50;;
77769;SDS011;66961;51.482;9.160;2023-11-19T05:57:55;5.32;;;1.90;;
77769;SDS011;66961;51.482;9.160;2023-11-19T06:00:20;4.57;;;1.60;;
77769;SDS011;66961;51.482;9.160;2023-11-19T06:02:46;3.20;;;1.50;;
77769;SDS011;66961;51.482;9.160;2023-11-19T06:05:11;2.77;;;1.53;;
77769;SDS011;66961;51.482;9.160;2023-11-19T06:07:37;3.25;;;1.70;;
77769;SDS011;66961;51.482;9.160;2023-11-19T06:10:02;3.78;;;1.63;;
77769;SDS011;66961;51.482;9.160;2023-11-19T06:12:28;4.82;;;1.58;;
77769;SDS011;66961;51.482;9.160;2023-11-19T06:14:53;3.58;;;1.70;;
77769;SDS011;66961;51.482;9.160;2023-11-19T06:17:18;8.37;;;2.77;;
77769;SDS011;66961;51.482;9.160;2023-11-19T06:19:44;5.90;;;1.80;;
77769;SDS011;66961;51.482;9.160;2023-11-19T06:22:09;8.90;;;2.10;;
77769;SDS011;66961;51.482;9.160;2023-11-19T06:24:34;6.47;;;1.93;;
77769;SDS011;66961;51.482;9.160;2023-11-19T06:26:59;7.53;;;2.20;;
77769;SDS011;66961;51.482;9.160;2023-11-19T06:29:25;4.60;;;1.67;;
77769;SDS011;66961;51.482;9.160;2023-11-19T06:31:50;8.60;;;2.00;;
77769;SDS011;66961;51.482;9.160;2023-11-19T06:34:15;8.13;;;1.80;;
77769;SDS011;66961;51.482;9.160;2023-11-19T06:36:41;15.00;;;2.63;;
77769;SDS011;66961;51.482;9.160;2023-11-19T06:39:06;9.52;;;1.70;;
77769;SDS011;66961;51.482;9.160;2023-11-19T06:41:31;9.90;;;2.60;;
77769;SDS011;66961;51.482;9.160;2023-11-19T06:43:57;10.85;;;1.92;;
77769;SDS011;66961;51.482;9.160;2023-11-19T06:46:28;6.03;;;1.75;;
77769;SDS011;66961;51.482;9.160;2023-11-19T06:48:54;8.67;;;1.80;;
77769;SDS011;66961;51.482;9.160;2023-11-19T06:51:19;10.60;;;1.80;;
77769;SDS011;66961;51.482;9.160;2023-11-19T06:53:44;11.47;;;1.87;;
77769;SDS011;66961;51.482;9.160;2023-11-19T06:58:48;15.77;;;2.00;;
77769;SDS011;66961;51.482;9.160;2023-11-19T07:01:17;16.00;;;3.28;;
77769;SDS011;66961;51.482;9.160;2023-11-19T07:03:44;14.18;;;2.38;;
77769;SDS011;66961;51.482;9.160;2023-11-19T07:06:10;8.10;;;1.48;;
77769;SDS011;66961;51.482;9.160;2023-11-19T07:08:35;6.90;;;2.00;;
77769;SDS011;66961;51.482;9.160;2023-11-19T07:11:00;11.40;;;1.90;;
77769;SDS011;66961;51.482;9.160;2023-11-19T07:13:25;14.97;;;2.57;;
77769;SDS011;66961;51.482;9.160;2023-11-19T07:15:51;14.37;;;1.80;;
77769;SDS011;66961;51.482;9.160;2023-11-19T07:18:16;10.43;;;2.73;;
77769;SDS011;66961;51.482;9.160;2023-11-19T07:20:41;12.03;;;1.80;;
77769;SDS011;66961;51.482;9.160;2023-11-19T07:23:06;15.23;;;2.43;;
77769;SDS011;66961;51.482;9.160;2023-11-19T07:25:32;10.93;;;2.00;;
77769;SDS011;66961;51.482;9.160;2023-11-19T07:27:57;11.47;;;2.07;;
77769;SDS011;66961;51.482;9.160;2023-11-19T07:30:22;9.13;;;1.70;;
77769;SDS011;66961;51.482;9.160;2023-11-19T07:32:47;13.20;;;2.13;;
77769;SDS011;66961;51.482;9.160;2023-11-19T07:35:13;10.83;;;1.57;;
77769;SDS011;66961;51.482;9.160;2023-11-19T07:37:38;13.13;;;2.00;;
77769;SDS011;66961;51.482;9.160;2023-11-19T07:40:03;14.13;;;2.50;;
77769;SDS011;66961;51.482;9.160;2023-11-19T07:42:29;12.75;;;2.53;;
77769;SDS011;66961;51.482;9.160;2023-11-19T07:44:54;11.77;;;2.20;;
77769;SDS011;66961;51.482;9.160;2023-11-19T07:47:19;10.50;;;1.60;;
77769;SDS011;66961;51.482;9.160;2023-11-19T07:49:45;8.17;;;1.70;;
77769;SDS011;66961;51.482;9.160;2023-11-19T07:52:10;8.97;;;2.13;;
77769;SDS011;66961;51.482;9.160;2023-11-19T07:54:35;9.90;;;1.73;;
77769;SDS011;66961;51.482;9.160;2023-11-19T07:57:00;17.30;;;2.00;;
77769;SDS011;66961;51.482;9.160;2023-11-19T07:59:26;10.90;;;2.08;;
77769;SDS011;66961;51.482;9.160;2023-11-19T08:01:51;10.50;;;2.70;;
77769;SDS011;66961;51.482;9.160;2023-11-19T08:04:16;16.27;;;3.20;;
77769;SDS011;66961;51.482;9.160;2023-11-19T08:06:41;10.57;;;2.33;;
77769;SDS011;66961;51.482;9.160;2023-11-19T08:09:07;10.77;;;2.07;;
77769;SDS011;66961;51.482;9.160;2023-11-19T08:11:32;8.73;;;2.33;;
77769;SDS011;66961;51.482;9.160;2023-11-19T08:13:58;15.93;;;2.53;;
77769;SDS011;66961;51.482;9.160;2023-11-19T08:16:23;15.70;;;2.67;;
77769;SDS011;66961;51.482;9.160;2023-11-19T08:18:48;14.70;;;2.43;;
77769;SDS011;66961;51.482;9.160;2023-11-19T08:21:14;17.23;;;3.10;;
77769;SDS011;66961;51.482;9.160;2023-11-19T08:23:39;14.95;;;2.78;;
77769;SDS011;66961;51.482;9.160;2023-11-19T08:26:05;15.85;;;2.85;;
77769;SDS011;66961;51.482;9.160;2023-11-19T08:28:31;10.57;;;1.90;;
77769;SDS011;66961;51.482;9.160;2023-11-19T08:30:56;11.37;;;1.90;;
77769;SDS011;66961;51.482;9.160;2023-11-19T08:33:21;9.75;;;2.88;;
77769;SDS011;66961;51.482;9.160;2023-11-19T08:35:47;14.80;;;2.20;;
77769;SDS011;66961;51.482;9.160;2023-11-19T08:38:12;11.87;;;1.90;;
77769;SDS011;66961;51.482;9.160;2023-11-19T08:40:37;10.40;;;1.63;;
77769;SDS011;66961;51.482;9.160;2023-11-19T08:43:02;9.30;;;1.60;;
77769;SDS011;66961;51.482;9.160;2023-11-19T08:45:28;15.57;;;2.20;;
77769;SDS011;66961;51.482;9.160;2023-11-19T08:47:53;13.73;;;2.37;;
77769;SDS011;66961;51.482;9.160;2023-11-19T08:50:18;10.37;;;1.90;;
77769;SDS011;66961;51.482;9.160;2023-11-19T08:52:43;8.20;;;1.30;;
77769;SDS011;66961;51.482;9.160;2023-11-19T08:55:09;12.57;;;1.90;;
77769;SDS011;66961;51.482;9.160;2023-11-19T08:57:34;9.13;;;1.90;;
77769;SDS011;66961;51.482;9.160;2023-11-19T08:59:59;14.57;;;1.70;;
77769;SDS011;66961;51.482;9.160;2023-11-19T09:02:24;15.37;;;2.47;;
77769;SDS011;66961;51.482;9.160;2023-11-19T09:04:50;12.07;;;1.83;;
77769;SDS011;66961;51.482;9.160;2023-11-19T09:07:15;14.18;;;1.60;;
77769;SDS011;66961;51.482;9.160;2023-11-19T09:09:41;12.63;;;1.85;;
77769;SDS011;66961;51.482;9.160;2023-11-19T09:12:06;14.53;;;2.10;;
77769;SDS011;66961;51.482;9.160;2023-11-19T09:14:31;14.00;;;1.80;;
77769;SDS011;66961;51.482;9.160;2023-11-19T09:16:57;11.37;;;2.27;;
77769;SDS011;66961;51.482;9.160;2023-11-19T09:19:22;9.55;;;1.50;;
77769;SDS011;66961;51.482;9.160;2023-11-19T09:21:47;14.60;;;2.37;;
77769;SDS011;66961;51.482;9.160;2023-11-19T09:24:13;15.03;;;2.17;;
77769;SDS011;66961;51.482;9.160;2023-11-19T09:26:38;11.50;;;2.70;;
77769;SDS011;66961;51.482;9.160;2023-11-19T09:29:04;12.90;;;2.10;;
77769;SDS011;66961;51.482;9.160;2023-11-19T09:31:29;16.02;;;2.25;;
77769;SDS011;66961;51.482;9.160;2023-11-19T09:33:54;8.77;;;1.83;;
77769;SDS011;66961;51.482;9.160;2023-11-19T09:36:20;11.13;;;2.17;;
77769;SDS011;66961;51.482;9.160;2023-11-19T09:38:45;13.47;;;1.90;;
77769;SDS011;66961;51.482;9.160;2023-11-19T09:41:10;16.43;;;3.50;;
77769;SDS011;66961;51.482;9.160;2023-11-19T09:43:36;11.30;;;2.00;;
77769;SDS011;66961;51.482;9.160;2023-11-19T09:46:05;15.77;;;2.58;;
77769;SDS011;66961;51.482;9.160;2023-11-19T09:48:34;11.48;;;2.13;;
77769;SDS011;66961;51.482;9.160;2023-11-19T09:51:00;11.57;;;1.92;;
77769;SDS011;66961;51.482;9.160;2023-11-19T09:53:26;17.52;;;2.08;;
77769;SDS011;66961;51.482;9.160;2023-11-19T09:55:52;14.77;;;2.25;;
77769;SDS011;66961;51.482;9.160;2023-11-19T09:58:18;11.70;;;2.00;;
77769;SDS011;66961;51.482;9.160;2023-11-19T10:00:43;12.38;;;2.40;;
77769;SDS011;66961;51.482;9.160;2023-11-19T10:03:09;8.23;;;2.27;;
77769;SDS011;66961;51.482;9.160;2023-11-19T10:05:36;10.93;;;1.92;;
77769;SDS011;66961;51.482;9.160;2023-11-19T10:08:01;12.40;;;1.90;;
77769;SDS011;66961;51.482;9.160;2023-11-19T10:10:27;10.43;;;2.03;;
77769;SDS011;66961;51.482;9.160;2023-11-19T10:12:52;13.13;;;2.23;;
77769;SDS011;66961;51.482;9.160;2023-11-19T10:15:21;14.75;;;2.65;;
77769;SDS011;66961;51.482;9.160;2023-11-19T10:17:47;8.75;;;2.15;;
77769;SDS011;66961;51.482;9.160;2023-11-19T10:20:13;15.13;;;2.60;;
77769;SDS011;66961;51.482;9.160;2023-11-19T10:22:38;11.77;;;1.88;;
77769;SDS011;66961;51.482;9.160;2023-11-19T10:25:04;11.88;;;2.17;;
77769;SDS011;66961;51.482;9.160;2023-11-19T10:27:30;11.90;;;2.58;;
77769;SDS011;66961;51.482;9.160;2023-11-19T10:29:59;12.57;;;2.27;;
77769;SDS011;66961;51.482;9.160;2023-11-19T10:32:24;16.55;;;2.35;;
77769;SDS011;66961;51.482;9.160;2023-11-19T10:34:49;12.17;;;2.10;;
77769;SDS011;66961;51.482;9.160;2023-11-19T10:37:36;15.73;;;2.60;;
77769;SDS011;66961;51.482;9.160;2023-11-19T10:40:00;13.20;;;2.97;;
77769;SDS011;66961;51.482;9.160;2023-11-19T10:42:26;17.73;;;2.57;;
77769;SDS011;66961;51.482;9.160;2023-11-19T10:44:51;12.93;;;2.53;;
77769;SDS011;66961;51.482;9.160;2023-11-19T10:47:18;14.37;;;2.70;;
77769;SDS011;66961;51.482;9.160;2023-11-19T10:49:44;16.55;;;2.60;;
77769;SDS011;66961;51.482;9.160;2023-11-19T10:52:10;15.65;;;2.25;;
77769;SDS011;66961;51.482;9.160;2023-11-19T10:54:35;12.00;;;2.05;;
77769;SDS011;66961;51.482;9.160;2023-11-19T10:57:05;11.10;;;2.45;;
77769;SDS011;66961;51.482;9.160;2023-11-19T10:59:34;16.05;;;2.50;;
77769;SDS011;66961;51.482;9.160;2023-11-19T11:02:03;17.95;;;2.63;;
77769;SDS011;66961;51.482;9.160;2023-11-19T11:04:33;11.50;;;2.22;;
77769;SDS011;66961;51.482;9.160;2023-11-19T11:07:05;15.13;;;2.67;;
77769;SDS011;66961;51.482;9.160;2023-11-19T11:09:30;15.45;;;2.72;;
77769;SDS011;66961;51.482;9.160;2023-11-19T11:11:56;11.95;;;2.33;;
77769;SDS011;66961;51.482;9.160;2023-11-19T11:14:24;10.80;;;2.10;;
77769;SDS011;66961;51.482;9.160;2023-11-19T11:16:50;12.30;;;2.10;;
77769;SDS011;66961;51.482;9.160;2023-11-19T11:19:16;12.95;;;2.42;;
77769;SDS011;66961;51.482;9.160;2023-11-19T11:21:42;16.67;;;3.17;;
77769;SDS011;66961;51.482;9.160;2023-11-19T11:36:22;13.20;;;2.25;;
77769;SDS011;66961;51.482;9.160;2023-11-19T11:38:48;26.02;;;2.40;;
77769;SDS011;66961;51.482;9.160;2023-11-19T11:41:15;14.13;;;2.10;;
77769;SDS011;66961;51.482;9.160;2023-11-19T11:43:48;9.05;;;2.60;;
77769;SDS011;66961;51.482;9.160;2023-11-19T11:48:59;12.88;;;2.00;;
77769;SDS011;66961;51.482;9.160;2023-11-19T11:54:31;18.40;;;2.50;;
77769;SDS011;66961;51.482;9.160;2023-11-19T11:57:08;10.65;;;2.20;;
77769;SDS011;66961;51.482;9.160;2023-11-19T11:59:36;11.20;;;1.90;;
77769;SDS011;66961;51.482;9.160;2023-11-19T12:02:03;18.50;;;2.92;;
77769;SDS011;66961;51.482;9.160;2023-11-19T12:04:28;16.58;;;2.17;;
77769;SDS011;66961;51.482;9.160;2023-11-19T12:07:06;13.27;;;2.50;;
77769;SDS011;66961;51.482;9.160;2023-11-19T12:09:41;15.88;;;2.35;;
77769;SDS011;66961;51.482;9.160;2023-11-19T12:19:57;14.48;;;2.30;;
77769;SDS011;66961;51.482;9.160;2023-11-19T12:22:26;11.13;;;2.40;;
77769;SDS011;66961;51.482;9.160;2023-11-19T12:24:55;12.50;;;2.30;;
77769;SDS011;66961;51.482;9.160;2023-11-19T12:27:21;9.35;;;2.05;;
77769;SDS011;66961;51.482;9.160;2023-11-19T12:29:47;11.30;;;2.15;;
77769;SDS011;66961;51.482;9.160;2023-11-19T12:32:12;11.88;;;1.83;;
77769;SDS011;66961;51.482;9.160;2023-11-19T12:34:37;10.43;;;1.50;;
77769;SDS011;66961;51.482;9.160;2023-11-19T12:37:03;10.65;;;1.73;;
77769;SDS011;66961;51.482;9.160;2023-11-19T12:39:31;13.85;;;2.17;;
77769;SDS011;66961;51.482;9.160;2023-11-19T12:41:57;12.90;;;3.03;;
77769;SDS011;66961;51.482;9.160;2023-11-19T12:44:22;9.82;;;2.17;;
77769;SDS011;66961;51.482;9.160;2023-11-19T12:46:58;12.90;;;2.20;;
77769;SDS011;66961;51.482;9.160;2023-11-19T12:49:27;15.48;;;2.03;;
77769;SDS011;66961;51.482;9.160;2023-11-19T12:51:53;11.43;;;1.63;;
77769;SDS011;66961;51.482;9.160;2023-11-19T12:54:18;10.50;;;2.13;;
77769;SDS011;66961;51.482;9.160;2023-11-19T12:56:52;13.63;;;2.40;;
77769;SDS011;66961;51.482;9.160;2023-11-19T12:59:18;11.55;;;2.30;;
77769;SDS011;66961;51.482;9.160;2023-11-19T13:01:53;11.98;;;1.92;;
77769;SDS011;66961;51.482;9.160;2023-11-19T13:04:19;18.23;;;3.13;;
77769;SDS011;66961;51.482;9.160;2023-11-19T13:06:45;13.27;;;3.37;;
77769;SDS011;66961;51.482;9.160;2023-11-19T13:09:21;15.18;;;2.67;;
77769;SDS011;66961;51.482;9.160;2023-11-19T13:11:53;13.25;;;2.75;;
77769;SDS011;66961;51.482;9.160;2023-11-19T13:14:19;11.52;;;2.35;;
77769;SDS011;66961;51.482;9.160;2023-11-19T13:16:45;14.07;;;2.33;;
77769;SDS011;66961;51.482;9.160;2023-11-19T13:19:10;8.60;;;2.10;;
77769;SDS011;66961;51.482;9.160;2023-11-19T13:21:36;12.88;;;2.45;;
77769;SDS011;66961;51.482;9.160;2023-11-19T13:24:01;13.60;;;2.53;;
77769;SDS011;66961;51.482;9.160;2023-11-19T13:26:27;12.70;;;2.30;;
77769;SDS011;66961;51.482;9.160;2023-11-19T13:28:52;16.17;;;2.78;;
77769;SDS011;66961;51.482;9.160;2023-11-19T13:31:17;10.50;;;2.07;;
77769;SDS011;66961;51.482;9.160;2023-11-19T13:33:43;14.27;;;2.20;;
77769;SDS011;66961;51.482;9.160;2023-11-19T13:36:08;11.43;;;1.80;;
77769;SDS011;66961;51.482;9.160;2023-11-19T13:38:33;11.40;;;1.85;;
77769;SDS011;66961;51.482;9.160;2023-11-19T13:40:59;12.50;;;3.25;;
77769;SDS011;66961;51.482;9.160;2023-11-19T13:43:25;9.00;;;1.93;;
77769;SDS011;66961;51.482;9.160;2023-11-19T13:45:51;10.25;;;1.77;;
77769;SDS011;66961;51.482;9.160;2023-11-19T13:48:16;9.13;;;2.10;;
77769;SDS011;66961;51.482;9.160;2023-11-19T13:50:41;9.03;;;1.80;;
77769;SDS011;66961;51.482;9.160;2023-11-19T13:53:07;14.03;;;2.43;;
77769;SDS011;66961;51.482;9.160;2023-11-19T13:55:32;11.83;;;2.23;;
77769;SDS011;66961;51.482;9.160;2023-11-19T13:57:57;15.77;;;2.20;;
77769;SDS011;66961;51.482;9.160;2023-11-19T14:00:22;11.60;;;1.87;;
77769;SDS011;66961;51.482;9.160;2023-11-19T14:02:48;14.00;;;2.10;;
77769;SDS011;66961;51.482;9.160;2023-11-19T14:05:13;11.13;;;2.10;;
77769;SDS011;66961;51.482;9.160;2023-11-19T14:07:40;11.02;;;1.98;;
77769;SDS011;66961;51.482;9.160;2023-11-19T14:10:06;12.57;;;2.13;;
77769;SDS011;66961;51.482;9.160;2023-11-19T14:12:36;14.25;;;3.05;;
77769;SDS011;66961;51.482;9.160;2023-11-19T14:15:03;14.43;;;2.60;;
77769;SDS011;66961;51.482;9.160;2023-11-19T14:17:33;16.33;;;2.35;;
77769;SDS011;66961;51.482;9.160;2023-11-19T14:19:58;12.82;;;2.75;;
77769;SDS011;66961;51.482;9.160;2023-11-19T14:22:24;18.58;;;2.22;;
77769;SDS011;66961;51.482;9.160;2023-11-19T14:24:49;15.53;;;2.10;;
77769;SDS011;66961;51.482;9.160;2023-11-19T14:27:14;14.80;;;2.03;;
77769;SDS011;66961;51.482;9.160;2023-11-19T14:29:40;13.67;;;2.10;;
77769;SDS011;66961;51.482;9.160;2023-11-19T14:32:05;17.50;;;2.77;;
77769;SDS011;66961;51.482;9.160;2023-11-19T14:34:30;10.57;;;1.92;;
77769;SDS011;66961;51.482;9.160;2023-11-19T14:36:56;9.83;;;1.97;;
77769;SDS011;66961;51.482;9.160;2023-11-19T14:39:22;10.52;;;1.90;;
77769;SDS011;66961;51.482;9.160;2023-11-19T14:41:47;11.75;;;2.50;;
77769;SDS011;66961;51.482;9.160;2023-11-19T14:44:12;13.35;;;2.38;;
77769;SDS011;66961;51.482;9.160;2023-11-19T14:46:37;12.33;;;2.40;;
77769;SDS011;66961;51.482;9.160;2023-11-19T14:49:03;15.50;;;3.08;;
77769;SDS011;66961;51.482;9.160;2023-11-19T14:51:29;15.48;;;2.22;;
77769;SDS011;66961;51.482;9.160;2023-11-19T14:53:54;13.55;;;2.17;;
77769;SDS011;66961;51.482;9.160;2023-11-19T14:56:20;14.20;;;2.33;;
77769;SDS011;66961;51.482;9.160;2023-11-19T14:58:45;14.00;;;2.13;;
77769;SDS011;66961;51.482;9.160;2023-11-19T15:01:13;10.07;;;2.03;;